sensor_id;sensor_type;location;lat;lon;timestamp;temperature;humidity
75281;HTU21D;63874;47.230;39.620;2023-03-18T00:01:45;8.89;80.20
75281;HTU21D;63874;47.230;39.620;2023-03-18T00:04:11;8.86;80.10
75281;HTU21D;63874;47.230;39.620;2023-03-18T00:06:37;8.85;80.08
75281;HTU21D;63874;47.230;39.620;2023-03-18T00:09:04;8.81;80.09
75281;HTU21D;63874;47.230;39.620;2023-03-18T00:11:30;8.80;79.98
75281;HTU21D;63874;47.230;39.620;2023-03-18T00:13:57;8.79;79.96
75281;HTU21D;63874;47.230;39.620;2023-03-18T00:16:24;8.78;79.89
75281;HTU21D;63874;47.230;39.620;2023-03-18T00:18:51;8.75;79.95
75281;HTU21D;63874;47.230;39.620;2023-03-18T00:21:18;8.73;79.96
75281;HTU21D;63874;47.230;39.620;2023-03-18T00:23:44;8.73;79.98
75281;HTU21D;63874;47.230;39.620;2023-03-18T00:26:10;8.71;80.24
75281;HTU21D;63874;47.230;39.620;2023-03-18T00:28:39;8.72;80.19
75281;HTU21D;63874;47.230;39.620;2023-03-18T00:31:09;8.70;80.04
75281;HTU21D;63874;47.230;39.620;2023-03-18T00:33:39;8.68;80.19
75281;HTU21D;63874;47.230;39.620;2023-03-18T00:36:08;8.63;80.34
75281;HTU21D;63874;47.230;39.620;2023-03-18T00:38:42;8.65;80.22
75281;HTU21D;63874;47.230;39.620;2023-03-18T00:41:08;8.65;80.19
75281;HTU21D;63874;47.230;39.620;2023-03-18T00:43:45;8.61;80.29
75281;HTU21D;63874;47.230;39.620;2023-03-18T00:48:44;8.61;80.27
75281;HTU21D;63874;47.230;39.620;2023-03-18T00:51:11;8.60;80.24
75281;HTU21D;63874;47.230;39.620;2023-03-18T00:53:43;8.61;80.20
75281;HTU21D;63874;47.230;39.620;2023-03-18T00:56:11;8.60;80.18
75281;HTU21D;63874;47.230;39.620;2023-03-18T00:58:38;8.61;80.19
75281;HTU21D;63874;47.230;39.620;2023-03-18T01:01:06;8.61;80.27
75281;HTU21D;63874;47.230;39.620;2023-03-18T01:03:34;8.57;80.24
75281;HTU21D;63874;47.230;39.620;2023-03-18T01:06:02;8.58;80.33
75281;HTU21D;63874;47.230;39.620;2023-03-18T01:08:30;8.57;80.27
75281;HTU21D;63874;47.230;39.620;2023-03-18T01:10:56;8.53;80.26
75281;HTU21D;63874;47.230;39.620;2023-03-18T01:13:22;8.51;80.36
75281;HTU21D;63874;47.230;39.620;2023-03-18T01:15:51;8.50;80.35
75281;HTU21D;63874;47.230;39.620;2023-03-18T01:18:17;8.52;80.28
75281;HTU21D;63874;47.230;39.620;2023-03-18T01:20:43;8.53;80.30
75281;HTU21D;63874;47.230;39.620;2023-03-18T01:23:10;8.52;80.22
75281;HTU21D;63874;47.230;39.620;2023-03-18T01:25:39;8.53;80.21
75281;HTU21D;63874;47.230;39.620;2023-03-18T01:28:05;8.53;80.29
75281;HTU21D;63874;47.230;39.620;2023-03-18T01:30:32;8.52;80.31
75281;HTU21D;63874;47.230;39.620;2023-03-18T01:33:02;8.51;80.35
75281;HTU21D;63874;47.230;39.620;2023-03-18T01:35:30;8.49;80.30
75281;HTU21D;63874;47.230;39.620;2023-03-18T01:37:57;8.46;80.56
75281;HTU21D;63874;47.230;39.620;2023-03-18T01:40:24;8.36;80.81
75281;HTU21D;63874;47.230;39.620;2023-03-18T01:42:56;8.35;80.65
75281;HTU21D;63874;47.230;39.620;2023-03-18T01:45:27;8.35;80.64
75281;HTU21D;63874;47.230;39.620;2023-03-18T01:47:55;8.36;80.77
75281;HTU21D;63874;47.230;39.620;2023-03-18T01:50:34;8.32;80.62
75281;HTU21D;63874;47.230;39.620;2023-03-18T01:53:09;8.28;80.76
75281;HTU21D;63874;47.230;39.620;2023-03-18T01:55:37;8.28;80.91
75281;HTU21D;63874;47.230;39.620;2023-03-18T01:58:32;8.31;80.95
75281;HTU21D;63874;47.230;39.620;2023-03-18T02:01:08;8.29;80.88
75281;HTU21D;63874;47.230;39.620;2023-03-18T02:03:37;8.27;81.04
75281;HTU21D;63874;47.230;39.620;2023-03-18T02:06:04;8.26;80.97
75281;HTU21D;63874;47.230;39.620;2023-03-18T02:08:30;8.26;80.85
75281;HTU21D;63874;47.230;39.620;2023-03-18T02:10:59;8.26;80.85
75281;HTU21D;63874;47.230;39.620;2023-03-18T02:13:25;8.28;80.77
75281;HTU21D;63874;47.230;39.620;2023-03-18T02:15:56;8.27;80.72
75281;HTU21D;63874;47.230;39.620;2023-03-18T02:18:30;8.26;80.85
75281;HTU21D;63874;47.230;39.620;2023-03-18T02:24:03;8.23;80.94
75281;HTU21D;63874;47.230;39.620;2023-03-18T02:29:23;8.28;80.88
75281;HTU21D;63874;47.230;39.620;2023-03-18T02:32:00;8.24;80.85
75281;HTU21D;63874;47.230;39.620;2023-03-18T02:34:27;8.23;80.88
75281;HTU21D;63874;47.230;39.620;2023-03-18T02:36:55;8.19;80.96
75281;HTU21D;63874;47.230;39.620;2023-03-18T02:39:22;8.19;80.96
75281;HTU21D;63874;47.230;39.620;2023-03-18T02:41:51;8.19;80.91
75281;HTU21D;63874;47.230;39.620;2023-03-18T02:44:19;8.19;80.87
75281;HTU21D;63874;47.230;39.620;2023-03-18T02:47:16;8.18;80.84
75281;HTU21D;63874;47.230;39.620;2023-03-18T02:49:44;8.15;80.91
75281;HTU21D;63874;47.230;39.620;2023-03-18T02:52:11;8.16;80.94
75281;HTU21D;63874;47.230;39.620;2023-03-18T02:54:37;8.12;81.05
75281;HTU21D;63874;47.230;39.620;2023-03-18T02:57:03;8.15;80.97
75281;HTU21D;63874;47.230;39.620;2023-03-18T02:59:29;8.13;80.85
75281;HTU21D;63874;47.230;39.620;2023-03-18T03:01:58;8.14;80.91
75281;HTU21D;63874;47.230;39.620;2023-03-18T03:04:25;8.11;80.83
75281;HTU21D;63874;47.230;39.620;2023-03-18T03:06:53;8.11;80.85
75281;HTU21D;63874;47.230;39.620;2023-03-18T03:09:32;8.09;80.74
75281;HTU21D;63874;47.230;39.620;2023-03-18T03:11:58;8.08;80.71
75281;HTU21D;63874;47.230;39.620;2023-03-18T03:14:25;8.07;80.90
75281;HTU21D;63874;47.230;39.620;2023-03-18T03:16:56;8.05;80.94
75281;HTU21D;63874;47.230;39.620;2023-03-18T03:19:22;8.03;80.95
75281;HTU21D;63874;47.230;39.620;2023-03-18T03:21:48;8.04;80.95
75281;HTU21D;63874;47.230;39.620;2023-03-18T03:24:15;8.06;80.91
75281;HTU21D;63874;47.230;39.620;2023-03-18T03:26:41;8.05;80.92
75281;HTU21D;63874;47.230;39.620;2023-03-18T03:29:07;8.04;80.90
75281;HTU21D;63874;47.230;39.620;2023-03-18T03:31:34;8.01;80.98
75281;HTU21D;63874;47.230;39.620;2023-03-18T03:34:00;8.05;81.01
75281;HTU21D;63874;47.230;39.620;2023-03-18T03:36:27;8.03;81.03
75281;HTU21D;63874;47.230;39.620;2023-03-18T03:38:55;8.03;81.05
75281;HTU21D;63874;47.230;39.620;2023-03-18T03:41:21;8.05;80.98
75281;HTU21D;63874;47.230;39.620;2023-03-18T03:43:48;8.05;80.96
75281;HTU21D;63874;47.230;39.620;2023-03-18T03:46:14;8.06;80.88
75281;HTU21D;63874;47.230;39.620;2023-03-18T03:48:40;8.07;80.89
75281;HTU21D;63874;47.230;39.620;2023-03-18T03:51:11;8.09;80.81
75281;HTU21D;63874;47.230;39.620;2023-03-18T03:53:37;8.11;80.72
75281;HTU21D;63874;47.230;39.620;2023-03-18T03:56:03;8.12;80.66
75281;HTU21D;63874;47.230;39.620;2023-03-18T03:58:29;8.12;80.69
75281;HTU21D;63874;47.230;39.620;2023-03-18T04:00:55;8.13;80.71
75281;HTU21D;63874;47.230;39.620;2023-03-18T04:03:21;8.17;80.50
75281;HTU21D;63874;47.230;39.620;2023-03-18T04:05:48;8.19;80.41
75281;HTU21D;63874;47.230;39.620;2023-03-18T04:08:18;8.18;80.41
75281;HTU21D;63874;47.230;39.620;2023-03-18T04:10:44;8.20;80.30
75281;HTU21D;63874;47.230;39.620;2023-03-18T04:13:10;8.22;80.33
75281;HTU21D;63874;47.230;39.620;2023-03-18T04:15:38;8.24;80.17
75281;HTU21D;63874;47.230;39.620;2023-03-18T04:18:08;8.22;80.11
75281;HTU21D;63874;47.230;39.620;2023-03-18T04:20:37;8.23;80.07
75281;HTU21D;63874;47.230;39.620;2023-03-18T04:23:11;8.22;79.97
75281;HTU21D;63874;47.230;39.620;2023-03-18T04:25:39;8.20;79.98
75281;HTU21D;63874;47.230;39.620;2023-03-18T04:28:04;8.18;80.06
75281;HTU21D;63874;47.230;39.620;2023-03-18T04:30:31;8.18;79.95
75281;HTU21D;63874;47.230;39.620;2023-03-18T04:33:11;8.16;79.90
75281;HTU21D;63874;47.230;39.620;2023-03-18T04:35:39;8.16;79.98
75281;HTU21D;63874;47.230;39.620;2023-03-18T04:38:10;8.17;79.92
75281;HTU21D;63874;47.230;39.620;2023-03-18T04:40:37;8.17;79.92
75281;HTU21D;63874;47.230;39.620;2023-03-18T04:43:03;8.18;79.90
75281;HTU21D;63874;47.230;39.620;2023-03-18T04:45:29;8.20;79.86
75281;HTU21D;63874;47.230;39.620;2023-03-18T04:47:58;8.21;79.74
75281;HTU21D;63874;47.230;39.620;2023-03-18T04:50:26;8.22;79.66
75281;HTU21D;63874;47.230;39.620;2023-03-18T04:52:53;8.22;79.73
75281;HTU21D;63874;47.230;39.620;2023-03-18T04:55:23;8.23;79.60
75281;HTU21D;63874;47.230;39.620;2023-03-18T04:57:50;8.27;79.55
75281;HTU21D;63874;47.230;39.620;2023-03-18T05:00:19;8.31;79.39
75281;HTU21D;63874;47.230;39.620;2023-03-18T05:02:49;8.34;79.18
75281;HTU21D;63874;47.230;39.620;2023-03-18T05:05:15;8.34;79.14
75281;HTU21D;63874;47.230;39.620;2023-03-18T05:07:46;8.36;79.04
75281;HTU21D;63874;47.230;39.620;2023-03-18T05:10:15;8.36;79.01
75281;HTU21D;63874;47.230;39.620;2023-03-18T05:12:42;8.38;78.96
75281;HTU21D;63874;47.230;39.620;2023-03-18T05:15:10;8.38;78.87
75281;HTU21D;63874;47.230;39.620;2023-03-18T05:17:41;8.39;78.99
75281;HTU21D;63874;47.230;39.620;2023-03-18T05:20:08;8.45;78.96
75281;HTU21D;63874;47.230;39.620;2023-03-18T05:22:35;8.51;78.73
75281;HTU21D;63874;47.230;39.620;2023-03-18T05:25:11;8.57;78.70
75281;HTU21D;63874;47.230;39.620;2023-03-18T05:27:39;8.64;78.41
75281;HTU21D;63874;47.230;39.620;2023-03-18T05:30:14;8.70;78.26
75281;HTU21D;63874;47.230;39.620;2023-03-18T05:32:58;8.77;78.15
75281;HTU21D;63874;47.230;39.620;2023-03-18T05:35:37;8.83;77.72
75281;HTU21D;63874;47.230;39.620;2023-03-18T05:38:04;8.89;77.52
75281;HTU21D;63874;47.230;39.620;2023-03-18T05:40:32;8.92;77.37
75281;HTU21D;63874;47.230;39.620;2023-03-18T05:43:07;9.00;77.28
75281;HTU21D;63874;47.230;39.620;2023-03-18T05:45:39;9.05;76.92
75281;HTU21D;63874;47.230;39.620;2023-03-18T05:48:07;9.05;76.87
75281;HTU21D;63874;47.230;39.620;2023-03-18T05:50:42;9.06;76.70
75281;HTU21D;63874;47.230;39.620;2023-03-18T05:53:12;9.09;76.75
75281;HTU21D;63874;47.230;39.620;2023-03-18T05:55:42;9.15;76.52
75281;HTU21D;63874;47.230;39.620;2023-03-18T05:58:08;9.20;76.54
75281;HTU21D;63874;47.230;39.620;2023-03-18T06:00:36;9.30;76.34
75281;HTU21D;63874;47.230;39.620;2023-03-18T06:03:02;9.39;76.28
75281;HTU21D;63874;47.230;39.620;2023-03-18T06:05:29;9.49;76.02
75281;HTU21D;63874;47.230;39.620;2023-03-18T06:07:56;9.55;75.64
75281;HTU21D;63874;47.230;39.620;2023-03-18T06:10:23;9.56;75.40
75281;HTU21D;63874;47.230;39.620;2023-03-18T06:12:50;9.59;75.22
75281;HTU21D;63874;47.230;39.620;2023-03-18T06:15:17;9.63;74.88
75281;HTU21D;63874;47.230;39.620;2023-03-18T06:17:45;9.64;74.89
75281;HTU21D;63874;47.230;39.620;2023-03-18T06:20:12;9.68;74.92
75281;HTU21D;63874;47.230;39.620;2023-03-18T06:22:40;9.75;74.69
75281;HTU21D;63874;47.230;39.620;2023-03-18T06:25:06;9.78;74.54
75281;HTU21D;63874;47.230;39.620;2023-03-18T06:27:36;9.79;74.36
75281;HTU21D;63874;47.230;39.620;2023-03-18T06:30:03;9.80;74.15
75281;HTU21D;63874;47.230;39.620;2023-03-18T06:32:32;9.82;74.07
75281;HTU21D;63874;47.230;39.620;2023-03-18T06:34:59;9.84;73.77
75281;HTU21D;63874;47.230;39.620;2023-03-18T06:37:26;9.81;73.72
75281;HTU21D;63874;47.230;39.620;2023-03-18T06:39:56;9.82;73.78
75281;HTU21D;63874;47.230;39.620;2023-03-18T06:42:22;9.86;73.84
75281;HTU21D;63874;47.230;39.620;2023-03-18T06:45:20;9.92;73.60
75281;HTU21D;63874;47.230;39.620;2023-03-18T06:47:56;9.95;73.49
75281;HTU21D;63874;47.230;39.620;2023-03-18T06:50:23;9.97;73.29
75281;HTU21D;63874;47.230;39.620;2023-03-18T06:52:49;10.03;73.19
75281;HTU21D;63874;47.230;39.620;2023-03-18T06:55:22;10.09;73.25
75281;HTU21D;63874;47.230;39.620;2023-03-18T06:57:48;10.19;73.03
75281;HTU21D;63874;47.230;39.620;2023-03-18T07:00:18;10.30;73.06
75281;HTU21D;63874;47.230;39.620;2023-03-18T07:02:46;10.41;72.41
75281;HTU21D;63874;47.230;39.620;2023-03-18T07:05:15;10.52;72.11
75281;HTU21D;63874;47.230;39.620;2023-03-18T07:07:42;10.60;72.18
75281;HTU21D;63874;47.230;39.620;2023-03-18T07:10:16;10.72;71.55
75281;HTU21D;63874;47.230;39.620;2023-03-18T07:12:42;10.82;71.31
75281;HTU21D;63874;47.230;39.620;2023-03-18T07:15:09;10.92;70.41
75281;HTU21D;63874;47.230;39.620;2023-03-18T07:17:37;10.94;69.82
75281;HTU21D;63874;47.230;39.620;2023-03-18T07:20:03;10.96;70.13
75281;HTU21D;63874;47.230;39.620;2023-03-18T07:22:30;11.03;69.82
75281;HTU21D;63874;47.230;39.620;2023-03-18T07:24:56;11.14;69.00
75281;HTU21D;63874;47.230;39.620;2023-03-18T07:27:22;11.20;69.10
75281;HTU21D;63874;47.230;39.620;2023-03-18T07:29:48;11.29;68.56
75281;HTU21D;63874;47.230;39.620;2023-03-18T07:32:15;11.34;68.32
75281;HTU21D;63874;47.230;39.620;2023-03-18T07:34:43;11.41;68.42
75281;HTU21D;63874;47.230;39.620;2023-03-18T07:37:09;11.47;67.82
75281;HTU21D;63874;47.230;39.620;2023-03-18T07:39:36;11.56;67.26
75281;HTU21D;63874;47.230;39.620;2023-03-18T07:42:03;11.63;66.99
75281;HTU21D;63874;47.230;39.620;2023-03-18T07:44:29;11.71;67.08
75281;HTU21D;63874;47.230;39.620;2023-03-18T07:46:56;11.82;67.51
75281;HTU21D;63874;47.230;39.620;2023-03-18T07:49:22;11.96;66.88
75281;HTU21D;63874;47.230;39.620;2023-03-18T07:51:48;12.11;65.74
75281;HTU21D;63874;47.230;39.620;2023-03-18T07:54:15;12.12;65.08
75281;HTU21D;63874;47.230;39.620;2023-03-18T07:56:42;12.12;64.60
75281;HTU21D;63874;47.230;39.620;2023-03-18T07:59:09;12.10;64.63
75281;HTU21D;63874;47.230;39.620;2023-03-18T08:01:35;12.10;64.79
75281;HTU21D;63874;47.230;39.620;2023-03-18T08:04:01;12.13;64.76
75281;HTU21D;63874;47.230;39.620;2023-03-18T08:06:26;12.21;64.69
75281;HTU21D;63874;47.230;39.620;2023-03-18T08:08:52;12.29;64.50
75281;HTU21D;63874;47.230;39.620;2023-03-18T08:11:18;12.34;64.13
75281;HTU21D;63874;47.230;39.620;2023-03-18T08:13:44;12.31;63.60
75281;HTU21D;63874;47.230;39.620;2023-03-18T08:16:10;12.33;64.15
75281;HTU21D;63874;47.230;39.620;2023-03-18T08:18:36;12.45;64.14
75281;HTU21D;63874;47.230;39.620;2023-03-18T08:21:03;12.55;63.78
75281;HTU21D;63874;47.230;39.620;2023-03-18T08:23:29;12.57;63.42
75281;HTU21D;63874;47.230;39.620;2023-03-18T08:25:55;12.57;63.34
75281;HTU21D;63874;47.230;39.620;2023-03-18T08:28:21;12.65;63.23
75281;HTU21D;63874;47.230;39.620;2023-03-18T08:30:47;12.70;62.43
75281;HTU21D;63874;47.230;39.620;2023-03-18T08:33:13;12.67;62.44
75281;HTU21D;63874;47.230;39.620;2023-03-18T08:35:39;12.70;62.18
75281;HTU21D;63874;47.230;39.620;2023-03-18T08:38:08;12.71;62.04
75281;HTU21D;63874;47.230;39.620;2023-03-18T08:40:34;12.80;62.73
75281;HTU21D;63874;47.230;39.620;2023-03-18T08:43:00;12.93;61.20
75281;HTU21D;63874;47.230;39.620;2023-03-18T08:45:26;12.91;61.18
75281;HTU21D;63874;47.230;39.620;2023-03-18T08:47:53;12.89;61.21
75281;HTU21D;63874;47.230;39.620;2023-03-18T08:50:19;12.90;60.78
75281;HTU21D;63874;47.230;39.620;2023-03-18T08:52:45;12.88;60.75
75281;HTU21D;63874;47.230;39.620;2023-03-18T08:55:11;12.92;61.28
75281;HTU21D;63874;47.230;39.620;2023-03-18T08:57:38;13.09;61.20
75281;HTU21D;63874;47.230;39.620;2023-03-18T09:00:05;13.23;61.09
75281;HTU21D;63874;47.230;39.620;2023-03-18T09:02:31;13.41;60.60
75281;HTU21D;63874;47.230;39.620;2023-03-18T09:04:58;13.59;60.10
75281;HTU21D;63874;47.230;39.620;2023-03-18T09:07:24;13.75;59.30
75281;HTU21D;63874;47.230;39.620;2023-03-18T09:09:50;13.73;58.39
75281;HTU21D;63874;47.230;39.620;2023-03-18T09:12:16;13.63;58.83
75281;HTU21D;63874;47.230;39.620;2023-03-18T09:14:42;13.55;58.90
75281;HTU21D;63874;47.230;39.620;2023-03-18T09:17:08;13.52;58.76
75281;HTU21D;63874;47.230;39.620;2023-03-18T09:19:34;13.56;58.74
75281;HTU21D;63874;47.230;39.620;2023-03-18T09:22:01;13.59;58.36
75281;HTU21D;63874;47.230;39.620;2023-03-18T09:24:26;13.79;58.54
75281;HTU21D;63874;47.230;39.620;2023-03-18T09:26:52;14.19;56.90
75281;HTU21D;63874;47.230;39.620;2023-03-18T09:29:18;14.52;56.24
75281;HTU21D;63874;47.230;39.620;2023-03-18T09:31:45;14.80;55.15
75281;HTU21D;63874;47.230;39.620;2023-03-18T09:34:11;14.92;53.88
75281;HTU21D;63874;47.230;39.620;2023-03-18T09:36:39;14.80;54.04
75281;HTU21D;63874;47.230;39.620;2023-03-18T09:39:05;14.53;54.51
75281;HTU21D;63874;47.230;39.620;2023-03-18T09:44:23;14.88;55.49
75281;HTU21D;63874;47.230;39.620;2023-03-18T09:50:10;16.04;51.93
75281;HTU21D;63874;47.230;39.620;2023-03-18T09:52:35;16.04;51.95
75281;HTU21D;63874;47.230;39.620;2023-03-18T09:57:44;15.55;50.99
75281;HTU21D;63874;47.230;39.620;2023-03-18T10:03:05;15.24;51.56
75281;HTU21D;63874;47.230;39.620;2023-03-18T10:05:47;15.01;52.38
75281;HTU21D;63874;47.230;39.620;2023-03-18T10:08:17;14.93;52.26
75281;HTU21D;63874;47.230;39.620;2023-03-18T10:10:45;15.38;51.44
75281;HTU21D;63874;47.230;39.620;2023-03-18T10:13:34;15.87;50.50
75281;HTU21D;63874;47.230;39.620;2023-03-18T10:16:03;16.40;49.24
75281;HTU21D;63874;47.230;39.620;2023-03-18T10:18:35;16.54;48.44
75281;HTU21D;63874;47.230;39.620;2023-03-18T10:21:11;16.18;48.31
75281;HTU21D;63874;47.230;39.620;2023-03-18T10:23:54;15.71;49.00
75281;HTU21D;63874;47.230;39.620;2023-03-18T10:26:36;15.77;49.17
75281;HTU21D;63874;47.230;39.620;2023-03-18T10:34:48;16.21;48.02
75281;HTU21D;63874;47.230;39.620;2023-03-18T10:39:59;16.25;47.22
75281;HTU21D;63874;47.230;39.620;2023-03-18T10:42:26;16.32;47.24
75281;HTU21D;63874;47.230;39.620;2023-03-18T10:45:06;16.58;46.43
75281;HTU21D;63874;47.230;39.620;2023-03-18T10:47:36;16.59;45.85
75281;HTU21D;63874;47.230;39.620;2023-03-18T10:50:12;16.67;45.88
75281;HTU21D;63874;47.230;39.620;2023-03-18T10:52:50;16.89;45.63
75281;HTU21D;63874;47.230;39.620;2023-03-18T10:55:26;16.62;45.18
75281;HTU21D;63874;47.230;39.620;2023-03-18T10:57:53;16.06;45.72
75281;HTU21D;63874;47.230;39.620;2023-03-18T11:00:31;15.51;46.85
75281;HTU21D;63874;47.230;39.620;2023-03-18T11:02:57;14.92;47.89
75281;HTU21D;63874;47.230;39.620;2023-03-18T11:05:27;14.51;48.99
75281;HTU21D;63874;47.230;39.620;2023-03-18T11:10:32;13.99;50.18
75281;HTU21D;63874;47.230;39.620;2023-03-18T11:13:00;13.61;50.93
75281;HTU21D;63874;47.230;39.620;2023-03-18T11:15:28;13.29;52.17
75281;HTU21D;63874;47.230;39.620;2023-03-18T11:17:59;13.12;52.91
75281;HTU21D;63874;47.230;39.620;2023-03-18T11:20:37;12.90;53.14
75281;HTU21D;63874;47.230;39.620;2023-03-18T11:23:27;12.58;54.08
75281;HTU21D;63874;47.230;39.620;2023-03-18T11:26:20;12.46;54.78
75281;HTU21D;63874;47.230;39.620;2023-03-18T11:28:46;12.38;55.02
75281;HTU21D;63874;47.230;39.620;2023-03-18T11:31:16;12.32;55.41
75281;HTU21D;63874;47.230;39.620;2023-03-18T11:33:45;12.32;55.65
75281;HTU21D;63874;47.230;39.620;2023-03-18T11:36:21;12.33;55.92
75281;HTU21D;63874;47.230;39.620;2023-03-18T11:39:01;12.20;56.17
75281;HTU21D;63874;47.230;39.620;2023-03-18T11:41:28;11.93;56.45
75281;HTU21D;63874;47.230;39.620;2023-03-18T11:44:06;11.67;57.01
75281;HTU21D;63874;47.230;39.620;2023-03-18T11:46:36;11.56;57.61
75281;HTU21D;63874;47.230;39.620;2023-03-18T11:49:04;11.58;57.73
75281;HTU21D;63874;47.230;39.620;2023-03-18T12:08:40;10.82;60.15
75281;HTU21D;63874;47.230;39.620;2023-03-18T12:15:04;10.74;60.61
75281;HTU21D;63874;47.230;39.620;2023-03-18T12:23:41;10.68;61.28
75281;HTU21D;63874;47.230;39.620;2023-03-18T12:28:47;10.68;61.51
75281;HTU21D;63874;47.230;39.620;2023-03-18T12:33:56;10.63;61.50
75281;HTU21D;63874;47.230;39.620;2023-03-18T12:42:16;10.58;61.54
75281;HTU21D;63874;47.230;39.620;2023-03-18T12:47:15;10.57;61.61
75281;HTU21D;63874;47.230;39.620;2023-03-18T12:49:48;10.50;61.83
75281;HTU21D;63874;47.230;39.620;2023-03-18T12:57:49;10.34;62.02
75281;HTU21D;63874;47.230;39.620;2023-03-18T13:00:23;10.28;62.41
75281;HTU21D;63874;47.230;39.620;2023-03-18T13:02:57;10.28;62.42
75281;HTU21D;63874;47.230;39.620;2023-03-18T13:11:37;10.19;62.53
75281;HTU21D;63874;47.230;39.620;2023-03-18T13:17:16;9.94;63.20
75281;HTU21D;63874;47.230;39.620;2023-03-18T13:19:46;9.90;63.33
75281;HTU21D;63874;47.230;39.620;2023-03-18T13:44:03;9.22;65.40
75281;HTU21D;63874;47.230;39.620;2023-03-18T13:46:31;9.16;65.50
75281;HTU21D;63874;47.230;39.620;2023-03-18T13:49:00;9.14;65.59
75281;HTU21D;63874;47.230;39.620;2023-03-18T13:53:56;9.08;65.73
75281;HTU21D;63874;47.230;39.620;2023-03-18T13:56:32;9.04;65.74
75281;HTU21D;63874;47.230;39.620;2023-03-18T13:59:06;8.97;65.88
75281;HTU21D;63874;47.230;39.620;2023-03-18T14:01:48;8.92;65.96
75281;HTU21D;63874;47.230;39.620;2023-03-18T14:07:16;8.82;66.44
75281;HTU21D;63874;47.230;39.620;2023-03-18T14:12:39;8.70;66.84
75281;HTU21D;63874;47.230;39.620;2023-03-18T14:17:55;8.57;67.00
75281;HTU21D;63874;47.230;39.620;2023-03-18T14:20:34;8.52;67.15
75281;HTU21D;63874;47.230;39.620;2023-03-18T14:23:34;8.48;67.77
75281;HTU21D;63874;47.230;39.620;2023-03-18T14:26:24;8.42;67.81
75281;HTU21D;63874;47.230;39.620;2023-03-18T14:41:59;8.14;68.78
75281;HTU21D;63874;47.230;39.620;2023-03-18T14:44:47;8.09;68.87
75281;HTU21D;63874;47.230;39.620;2023-03-18T14:50:03;8.03;68.83
75281;HTU21D;63874;47.230;39.620;2023-03-18T14:52:39;8.01;68.91
75281;HTU21D;63874;47.230;39.620;2023-03-18T14:55:28;8.00;69.09
75281;HTU21D;63874;47.230;39.620;2023-03-18T14:57:55;7.94;69.13
75281;HTU21D;63874;47.230;39.620;2023-03-18T15:00:22;7.92;69.16
75281;HTU21D;63874;47.230;39.620;2023-03-18T15:03:08;7.87;69.28
75281;HTU21D;63874;47.230;39.620;2023-03-18T15:05:40;7.82;69.29
75281;HTU21D;63874;47.230;39.620;2023-03-18T15:08:19;7.74;69.61
75281;HTU21D;63874;47.230;39.620;2023-03-18T15:10:47;7.72;69.56
75281;HTU21D;63874;47.230;39.620;2023-03-18T15:13:18;7.71;69.55
75281;HTU21D;63874;47.230;39.620;2023-03-18T15:15:44;7.68;69.65
75281;HTU21D;63874;47.230;39.620;2023-03-18T15:18:28;7.65;69.53
75281;HTU21D;63874;47.230;39.620;2023-03-18T15:20:58;7.61;69.65
75281;HTU21D;63874;47.230;39.620;2023-03-18T15:23:49;7.59;69.73
75281;HTU21D;63874;47.230;39.620;2023-03-18T15:26:21;7.53;69.71
75281;HTU21D;63874;47.230;39.620;2023-03-18T15:28:52;7.47;69.96
75281;HTU21D;63874;47.230;39.620;2023-03-18T15:31:37;7.49;69.87
75281;HTU21D;63874;47.230;39.620;2023-03-18T15:36:41;7.46;69.84
75281;HTU21D;63874;47.230;39.620;2023-03-18T15:39:18;7.43;69.97
75281;HTU21D;63874;47.230;39.620;2023-03-18T15:41:49;7.41;70.01
75281;HTU21D;63874;47.230;39.620;2023-03-18T15:44:21;7.37;70.07
75281;HTU21D;63874;47.230;39.620;2023-03-18T15:46:49;7.33;70.28
75281;HTU21D;63874;47.230;39.620;2023-03-18T15:49:15;7.34;70.21
75281;HTU21D;63874;47.230;39.620;2023-03-18T15:51:43;7.28;70.29
75281;HTU21D;63874;47.230;39.620;2023-03-18T15:54:38;7.28;70.26
75281;HTU21D;63874;47.230;39.620;2023-03-18T15:57:28;7.23;70.34
75281;HTU21D;63874;47.230;39.620;2023-03-18T15:59:55;7.15;70.58
75281;HTU21D;63874;47.230;39.620;2023-03-18T16:02:21;7.05;70.71
75281;HTU21D;63874;47.230;39.620;2023-03-18T16:04:48;7.00;71.21
75281;HTU21D;63874;47.230;39.620;2023-03-18T16:07:19;7.00;71.19
75281;HTU21D;63874;47.230;39.620;2023-03-18T16:09:52;7.00;71.14
75281;HTU21D;63874;47.230;39.620;2023-03-18T16:12:23;7.00;71.26
75281;HTU21D;63874;47.230;39.620;2023-03-18T16:14:53;7.02;71.36
75281;HTU21D;63874;47.230;39.620;2023-03-18T16:17:19;7.01;71.16
75281;HTU21D;63874;47.230;39.620;2023-03-18T16:19:46;7.02;71.29
75281;HTU21D;63874;47.230;39.620;2023-03-18T16:22:13;7.03;71.13
75281;HTU21D;63874;47.230;39.620;2023-03-18T16:24:40;7.01;71.13
75281;HTU21D;63874;47.230;39.620;2023-03-18T16:27:28;7.05;71.23
75281;HTU21D;63874;47.230;39.620;2023-03-18T16:29:55;7.03;71.10
75281;HTU21D;63874;47.230;39.620;2023-03-18T16:32:21;7.02;71.25
75281;HTU21D;63874;47.230;39.620;2023-03-18T16:34:47;7.02;71.05
75281;HTU21D;63874;47.230;39.620;2023-03-18T16:37:23;7.01;71.12
75281;HTU21D;63874;47.230;39.620;2023-03-18T16:39:50;7.00;71.07
75281;HTU21D;63874;47.230;39.620;2023-03-18T16:42:21;7.00;71.20
75281;HTU21D;63874;47.230;39.620;2023-03-18T16:44:47;7.01;71.08
75281;HTU21D;63874;47.230;39.620;2023-03-18T16:47:25;6.98;71.10
75281;HTU21D;63874;47.230;39.620;2023-03-18T16:49:51;6.98;71.20
75281;HTU21D;63874;47.230;39.620;2023-03-18T16:52:17;6.98;71.15
75281;HTU21D;63874;47.230;39.620;2023-03-18T16:54:44;6.93;71.13
75281;HTU21D;63874;47.230;39.620;2023-03-18T16:57:16;6.90;71.25
75281;HTU21D;63874;47.230;39.620;2023-03-18T16:59:46;6.86;71.49
75281;HTU21D;63874;47.230;39.620;2023-03-18T17:04:56;6.89;71.55
75281;HTU21D;63874;47.230;39.620;2023-03-18T17:07:21;6.87;71.45
75281;HTU21D;63874;47.230;39.620;2023-03-18T17:09:47;6.85;71.54
75281;HTU21D;63874;47.230;39.620;2023-03-18T17:12:14;6.80;71.55
75281;HTU21D;63874;47.230;39.620;2023-03-18T17:14:43;6.76;71.57
75281;HTU21D;63874;47.230;39.620;2023-03-18T17:19:47;6.73;71.78
75281;HTU21D;63874;47.230;39.620;2023-03-18T17:22:25;6.72;71.87
75281;HTU21D;63874;47.230;39.620;2023-03-18T17:24:52;6.72;71.88
75281;HTU21D;63874;47.230;39.620;2023-03-18T17:27:36;6.69;72.04
75281;HTU21D;63874;47.230;39.620;2023-03-18T17:30:34;6.67;72.21
75281;HTU21D;63874;47.230;39.620;2023-03-18T17:33:01;6.64;72.09
75281;HTU21D;63874;47.230;39.620;2023-03-18T17:35:28;6.65;72.48
75281;HTU21D;63874;47.230;39.620;2023-03-18T17:37:54;6.61;72.41
75281;HTU21D;63874;47.230;39.620;2023-03-18T17:40:22;6.63;72.38
75281;HTU21D;63874;47.230;39.620;2023-03-18T17:42:50;6.64;72.29
75281;HTU21D;63874;47.230;39.620;2023-03-18T17:45:30;6.66;72.32
75281;HTU21D;63874;47.230;39.620;2023-03-18T17:50:35;6.66;72.27
75281;HTU21D;63874;47.230;39.620;2023-03-18T17:53:01;6.68;72.33